sensor_id;sensor_type;location;lat;lon;timestamp;pressure;altitude;pressure_sealevel;temperature;humidity
74524;BME280;63074;44.696;10.358;2022-09-30T00:01:35;98620.63;;;15.55;84.60
74524;BME280;63074;44.696;10.358;2022-09-30T00:04:02;98619.63;;;15.51;85.59
74524;BME280;63074;44.696;10.358;2022-09-30T00:06:28;98620.06;;;15.58;85.37
74524;BME280;63074;44.696;10.358;2022-09-30T00:08:55;98630.66;;;15.41;87.04
74524;BME280;63074;44.696;10.358;2022-09-30T00:11:24;98628.94;;;15.45;87.02
74524;BME280;63074;44.696;10.358;2022-09-30T00:13:52;98638.69;;;15.46;87.44
74524;BME280;63074;44.696;10.358;2022-09-30T00:16:19;98642.50;;;15.45;87.26
74524;BME280;63074;44.696;10.358;2022-09-30T00:18:48;98646.22;;;15.63;85.93
74524;BME280;63074;44.696;10.358;2022-09-30T00:21:15;98652.44;;;15.63;87.66
74524;BME280;63074;44.696;10.358;2022-09-30T00:23:41;98645.81;;;15.56;88.31
74524;BME280;63074;44.696;10.358;2022-09-30T00:26:11;98651.31;;;15.64;88.04
74524;BME280;63074;44.696;10.358;2022-09-30T00:28:37;98657.09;;;15.16;91.45
74524;BME280;63074;44.696;10.358;2022-09-30T00:31:05;98658.53;;;14.81;96.32
74524;BME280;63074;44.696;10.358;2022-09-30T00:33:32;98669.63;;;14.99;94.77
74524;BME280;63074;44.696;10.358;2022-09-30T00:35:58;98679.28;;;14.86;96.56
74524;BME280;63074;44.696;10.358;2022-09-30T00:38:24;98674.09;;;14.90;96.93
74524;BME280;63074;44.696;10.358;2022-09-30T00:40:50;98680.84;;;14.73;98.15
74524;BME280;63074;44.696;10.358;2022-09-30T00:43:37;98686.50;;;14.39;100.00
74524;BME280;63074;44.696;10.358;2022-09-30T00:49:11;98681.38;;;14.57;100.00
74524;BME280;63074;44.696;10.358;2022-09-30T00:51:44;98684.31;;;14.60;99.60
74524;BME280;63074;44.696;10.358;2022-09-30T00:54:14;98687.84;;;14.42;100.00
74524;BME280;63074;44.696;10.358;2022-09-30T00:56:44;98690.88;;;14.54;99.59
74524;BME280;63074;44.696;10.358;2022-09-30T00:59:14;98694.69;;;14.53;100.00
74524;BME280;63074;44.696;10.358;2022-09-30T01:01:41;98694.41;;;14.55;100.00
74524;BME280;63074;44.696;10.358;2022-09-30T01:04:12;98703.81;;;14.38;100.00
74524;BME280;63074;44.696;10.358;2022-09-30T01:06:39;98717.44;;;14.09;100.00
74524;BME280;63074;44.696;10.358;2022-09-30T01:09:04;98712.13;;;14.04;100.00
74524;BME280;63074;44.696;10.358;2022-09-30T01:11:30;98701.66;;;13.98;100.00
74524;BME280;63074;44.696;10.358;2022-09-30T01:14:03;98708.72;;;13.94;100.00
74524;BME280;63074;44.696;10.358;2022-09-30T01:16:41;98710.25;;;13.81;100.00
74524;BME280;63074;44.696;10.358;2022-09-30T01:25:02;98692.53;;;13.94;100.00
74524;BME280;63074;44.696;10.358;2022-09-30T01:27:42;98696.72;;;14.05;100.00
74524;BME280;63074;44.696;10.358;2022-09-30T01:30:22;98689.31;;;13.92;100.00
74524;BME280;63074;44.696;10.358;2022-09-30T01:33:00;98685.38;;;14.03;100.00
74524;BME280;63074;44.696;10.358;2022-09-30T01:35:53;98674.53;;;14.08;100.00
74524;BME280;63074;44.696;10.358;2022-09-30T01:38:41;98672.00;;;13.93;100.00
74524;BME280;63074;44.696;10.358;2022-09-30T01:44:14;98664.66;;;13.79;100.00
74524;BME280;63074;44.696;10.358;2022-09-30T01:46:51;98668.50;;;13.73;100.00
74524;BME280;63074;44.696;10.358;2022-09-30T01:49:41;98670.72;;;13.66;100.00
74524;BME280;63074;44.696;10.358;2022-09-30T01:52:22;98675.28;;;13.71;100.00
74524;BME280;63074;44.696;10.358;2022-09-30T02:00:36;98686.56;;;13.97;100.00
74524;BME280;63074;44.696;10.358;2022-09-30T02:03:10;98679.34;;;14.11;100.00
74524;BME280;63074;44.696;10.358;2022-09-30T02:05:44;98683.94;;;14.29;100.00
74524;BME280;63074;44.696;10.358;2022-09-30T02:11:06;98693.66;;;13.69;100.00
74524;BME280;63074;44.696;10.358;2022-09-30T02:14:00;98701.84;;;13.59;100.00
74524;BME280;63074;44.696;10.358;2022-09-30T02:16:33;98700.88;;;13.26;100.00
74524;BME280;63074;44.696;10.358;2022-09-30T02:21:39;98718.06;;;13.59;100.00
74524;BME280;63074;44.696;10.358;2022-09-30T02:24:10;98727.09;;;13.49;100.00
74524;BME280;63074;44.696;10.358;2022-09-30T02:26:38;98719.38;;;13.37;100.00
74524;BME280;63074;44.696;10.358;2022-09-30T02:29:09;98718.75;;;13.45;100.00
74524;BME280;63074;44.696;10.358;2022-09-30T02:31:39;98717.84;;;13.55;100.00
74524;BME280;63074;44.696;10.358;2022-09-30T02:34:18;98715.00;;;13.65;100.00
74524;BME280;63074;44.696;10.358;2022-09-30T02:42:07;98730.88;;;13.48;100.00
74524;BME280;63074;44.696;10.358;2022-09-30T02:44:36;98735.41;;;13.52;100.00
74524;BME280;63074;44.696;10.358;2022-09-30T02:49:51;98734.31;;;13.77;100.00
74524;BME280;63074;44.696;10.358;2022-09-30T03:00:38;98750.56;;;13.72;100.00
74524;BME280;63074;44.696;10.358;2022-09-30T03:03:10;98755.97;;;13.72;100.00
74524;BME280;63074;44.696;10.358;2022-09-30T03:05:37;98747.41;;;13.89;100.00
74524;BME280;63074;44.696;10.358;2022-09-30T03:08:02;98747.19;;;13.85;100.00
74524;BME280;63074;44.696;10.358;2022-09-30T03:10:28;98763.41;;;13.85;100.00
74524;BME280;63074;44.696;10.358;2022-09-30T03:32:14;98781.34;;;13.47;100.00
74524;BME280;63074;44.696;10.358;2022-09-30T03:35:03;98777.53;;;13.77;100.00
74524;BME280;63074;44.696;10.358;2022-09-30T03:43:23;98774.53;;;14.03;100.00
74524;BME280;63074;44.696;10.358;2022-09-30T03:46:02;98782.88;;;13.82;100.00
74524;BME280;63074;44.696;10.358;2022-09-30T03:48:32;98777.28;;;13.98;100.00
74524;BME280;63074;44.696;10.358;2022-09-30T03:50:59;98770.16;;;14.07;100.00
74524;BME280;63074;44.696;10.358;2022-09-30T03:53:25;98785.56;;;13.82;100.00
74524;BME280;63074;44.696;10.358;2022-09-30T03:55:52;98778.28;;;13.83;100.00
74524;BME280;63074;44.696;10.358;2022-09-30T03:58:19;98782.53;;;13.60;100.00
74524;BME280;63074;44.696;10.358;2022-09-30T04:00:52;98769.94;;;13.56;100.00
74524;BME280;63074;44.696;10.358;2022-09-30T04:03:20;98779.22;;;13.44;100.00
74524;BME280;63074;44.696;10.358;2022-09-30T04:05:46;98766.47;;;13.50;100.00
74524;BME280;63074;44.696;10.358;2022-09-30T04:08:12;98764.69;;;13.64;100.00
74524;BME280;63074;44.696;10.358;2022-09-30T04:10:41;98774.03;;;13.19;100.00
74524;BME280;63074;44.696;10.358;2022-09-30T04:13:08;98766.53;;;13.45;100.00
74524;BME280;63074;44.696;10.358;2022-09-30T04:15:34;98769.81;;;13.37;100.00
74524;BME280;63074;44.696;10.358;2022-09-30T04:18:01;98767.38;;;13.64;100.00
74524;BME280;63074;44.696;10.358;2022-09-30T04:20:31;98779.72;;;13.17;100.00
74524;BME280;63074;44.696;10.358;2022-09-30T04:23:15;98789.75;;;13.07;100.00
74524;BME280;63074;44.696;10.358;2022-09-30T04:25:41;98804.09;;;13.36;100.00
74524;BME280;63074;44.696;10.358;2022-09-30T04:28:08;98792.81;;;13.29;100.00
74524;BME280;63074;44.696;10.358;2022-09-30T04:30:33;98795.38;;;13.10;100.00
74524;BME280;63074;44.696;10.358;2022-09-30T04:33:01;98792.47;;;13.02;100.00
74524;BME280;63074;44.696;10.358;2022-09-30T04:35:27;98793.91;;;12.94;100.00
74524;BME280;63074;44.696;10.358;2022-09-30T04:37:54;98782.63;;;13.26;100.00
74524;BME280;63074;44.696;10.358;2022-09-30T04:40:20;98786.47;;;13.15;100.00
74524;BME280;63074;44.696;10.358;2022-09-30T04:42:46;98775.31;;;13.56;100.00
74524;BME280;63074;44.696;10.358;2022-09-30T04:45:12;98787.25;;;13.49;100.00
74524;BME280;63074;44.696;10.358;2022-09-30T04:47:42;98788.03;;;13.55;100.00
74524;BME280;63074;44.696;10.358;2022-09-30T04:50:08;98798.38;;;13.43;100.00
74524;BME280;63074;44.696;10.358;2022-09-30T04:52:34;98800.00;;;13.44;100.00
74524;BME280;63074;44.696;10.358;2022-09-30T04:55:15;98796.72;;;13.47;100.00
74524;BME280;63074;44.696;10.358;2022-09-30T04:57:49;98787.63;;;13.67;100.00
74524;BME280;63074;44.696;10.358;2022-09-30T05:00:21;98798.25;;;13.82;100.00
74524;BME280;63074;44.696;10.358;2022-09-30T05:02:50;98800.22;;;13.47;100.00
74524;BME280;63074;44.696;10.358;2022-09-30T05:05:16;98813.31;;;13.30;100.00
74524;BME280;63074;44.696;10.358;2022-09-30T05:07:42;98820.28;;;13.36;100.00
74524;BME280;63074;44.696;10.358;2022-09-30T05:10:08;98822.97;;;13.36;100.00
74524;BME280;63074;44.696;10.358;2022-09-30T05:12:36;98827.00;;;13.39;100.00
74524;BME280;63074;44.696;10.358;2022-09-30T05:15:03;98839.41;;;13.40;100.00
74524;BME280;63074;44.696;10.358;2022-09-30T05:17:30;98841.28;;;13.44;100.00
74524;BME280;63074;44.696;10.358;2022-09-30T05:19:55;98837.84;;;13.34;100.00
74524;BME280;63074;44.696;10.358;2022-09-30T05:22:21;98849.94;;;13.41;100.00
74524;BME280;63074;44.696;10.358;2022-09-30T05:24:49;98848.00;;;13.47;100.00
74524;BME280;63074;44.696;10.358;2022-09-30T05:27:14;98845.81;;;13.49;100.00
74524;BME280;63074;44.696;10.358;2022-09-30T05:29:40;98845.56;;;13.45;100.00
74524;BME280;63074;44.696;10.358;2022-09-30T05:32:06;98861.25;;;13.43;100.00
74524;BME280;63074;44.696;10.358;2022-09-30T05:34:32;98874.47;;;13.45;100.00
74524;BME280;63074;44.696;10.358;2022-09-30T05:36:57;98873.47;;;13.65;100.00
74524;BME280;63074;44.696;10.358;2022-09-30T05:39:22;98881.31;;;13.61;100.00
74524;BME280;63074;44.696;10.358;2022-09-30T05:41:48;98881.25;;;13.71;100.00
74524;BME280;63074;44.696;10.358;2022-09-30T05:44:13;98881.16;;;13.81;100.00
74524;BME280;63074;44.696;10.358;2022-09-30T05:46:39;98893.03;;;13.51;100.00
74524;BME280;63074;44.696;10.358;2022-09-30T05:49:04;98894.41;;;13.49;100.00
74524;BME280;63074;44.696;10.358;2022-09-30T05:51:29;98897.22;;;13.29;100.00
74524;BME280;63074;44.696;10.358;2022-09-30T05:53:55;98902.44;;;13.20;100.00
74524;BME280;63074;44.696;10.358;2022-09-30T05:56:20;98913.88;;;13.41;100.00
74524;BME280;63074;44.696;10.358;2022-09-30T05:58:46;98915.72;;;13.50;100.00
74524;BME280;63074;44.696;10.358;2022-09-30T06:01:13;98924.19;;;13.34;100.00
74524;BME280;63074;44.696;10.358;2022-09-30T06:03:39;98924.97;;;13.34;100.00
74524;BME280;63074;44.696;10.358;2022-09-30T06:06:05;98937.34;;;13.45;100.00
74524;BME280;63074;44.696;10.358;2022-09-30T06:08:31;98940.34;;;13.39;100.00
74524;BME280;63074;44.696;10.358;2022-09-30T06:10:57;98940.19;;;13.15;100.00
74524;BME280;63074;44.696;10.358;2022-09-30T06:13:26;98937.50;;;13.20;100.00
74524;BME280;63074;44.696;10.358;2022-09-30T06:15:59;98936.53;;;13.45;100.00
74524;BME280;63074;44.696;10.358;2022-09-30T06:18:26;98939.72;;;13.03;100.00
74524;BME280;63074;44.696;10.358;2022-09-30T06:20:55;98951.16;;;13.34;100.00
74524;BME280;63074;44.696;10.358;2022-09-30T06:23:21;98963.47;;;13.50;100.00
74524;BME280;63074;44.696;10.358;2022-09-30T06:25:50;98980.88;;;13.68;100.00
74524;BME280;63074;44.696;10.358;2022-09-30T06:28:17;98977.59;;;13.76;100.00
74524;BME280;63074;44.696;10.358;2022-09-30T06:30:43;98974.97;;;13.66;100.00
74524;BME280;63074;44.696;10.358;2022-09-30T06:33:09;98981.13;;;13.71;100.00
74524;BME280;63074;44.696;10.358;2022-09-30T06:35:34;98981.16;;;13.66;100.00
74524;BME280;63074;44.696;10.358;2022-09-30T06:38:00;98996.22;;;13.33;100.00
74524;BME280;63074;44.696;10.358;2022-09-30T06:40:26;98995.94;;;13.35;100.00
74524;BME280;63074;44.696;10.358;2022-09-30T06:42:57;98996.59;;;13.61;100.00
74524;BME280;63074;44.696;10.358;2022-09-30T06:45:22;99000.66;;;13.58;100.00
74524;BME280;63074;44.696;10.358;2022-09-30T06:47:48;98997.81;;;13.78;100.00
74524;BME280;63074;44.696;10.358;2022-09-30T06:50:16;98993.84;;;13.66;100.00
74524;BME280;63074;44.696;10.358;2022-09-30T06:52:42;98999.09;;;13.52;100.00
74524;BME280;63074;44.696;10.358;2022-09-30T06:55:07;98996.97;;;13.83;100.00
74524;BME280;63074;44.696;10.358;2022-09-30T06:57:32;98988.75;;;14.27;100.00
74524;BME280;63074;44.696;10.358;2022-09-30T07:00:00;98985.28;;;14.50;100.00
74524;BME280;63074;44.696;10.358;2022-09-30T07:02:25;98996.09;;;14.50;100.00
74524;BME280;63074;44.696;10.358;2022-09-30T07:04:51;98997.78;;;14.46;100.00
74524;BME280;63074;44.696;10.358;2022-09-30T07:07:16;99000.13;;;14.53;100.00
74524;BME280;63074;44.696;10.358;2022-09-30T07:09:46;98998.72;;;14.61;100.00
74524;BME280;63074;44.696;10.358;2022-09-30T07:12:11;99014.75;;;14.52;100.00
74524;BME280;63074;44.696;10.358;2022-09-30T07:14:37;99031.53;;;14.49;100.00
74524;BME280;63074;44.696;10.358;2022-09-30T07:17:04;99036.94;;;14.49;100.00
74524;BME280;63074;44.696;10.358;2022-09-30T07:19:30;99042.59;;;14.52;100.00
74524;BME280;63074;44.696;10.358;2022-09-30T07:21:58;99051.91;;;14.36;100.00
74524;BME280;63074;44.696;10.358;2022-09-30T07:24:42;99051.34;;;14.39;100.00
74524;BME280;63074;44.696;10.358;2022-09-30T07:27:07;99045.50;;;14.27;100.00
74524;BME280;63074;44.696;10.358;2022-09-30T07:29:33;99041.66;;;14.33;100.00
74524;BME280;63074;44.696;10.358;2022-09-30T07:31:58;99063.75;;;14.11;100.00
74524;BME280;63074;44.696;10.358;2022-09-30T07:34:24;99058.41;;;14.01;100.00
74524;BME280;63074;44.696;10.358;2022-09-30T07:36:50;99069.50;;;14.00;100.00
74524;BME280;63074;44.696;10.358;2022-09-30T07:39:16;99077.06;;;13.98;100.00
74524;BME280;63074;44.696;10.358;2022-09-30T07:41:41;99086.00;;;14.32;100.00
74524;BME280;63074;44.696;10.358;2022-09-30T07:44:12;99088.25;;;14.20;100.00
74524;BME280;63074;44.696;10.358;2022-09-30T07:46:39;99093.19;;;14.13;100.00
74524;BME280;63074;44.696;10.358;2022-09-30T07:49:07;99106.72;;;14.08;100.00
74524;BME280;63074;44.696;10.358;2022-09-30T07:51:36;99108.81;;;14.16;100.00
74524;BME280;63074;44.696;10.358;2022-09-30T07:54:04;99112.03;;;14.18;100.00
74524;BME280;63074;44.696;10.358;2022-09-30T07:56:30;99121.75;;;14.19;100.00
74524;BME280;63074;44.696;10.358;2022-09-30T07:58:58;99116.22;;;14.39;100.00
74524;BME280;63074;44.696;10.358;2022-09-30T08:01:26;99127.22;;;14.14;100.00
74524;BME280;63074;44.696;10.358;2022-09-30T08:03:54;99137.09;;;14.29;100.00
74524;BME280;63074;44.696;10.358;2022-09-30T08:06:21;99138.84;;;14.48;100.00
74524;BME280;63074;44.696;10.358;2022-09-30T08:08:49;99139.91;;;14.52;100.00
74524;BME280;63074;44.696;10.358;2022-09-30T08:11:15;99139.13;;;14.47;100.00
74524;BME280;63074;44.696;10.358;2022-09-30T08:13:41;99141.28;;;14.50;100.00
74524;BME280;63074;44.696;10.358;2022-09-30T08:16:07;99151.03;;;14.80;100.00
74524;BME280;63074;44.696;10.358;2022-09-30T08:18:32;99157.53;;;14.79;100.00
74524;BME280;63074;44.696;10.358;2022-09-30T08:21:03;99164.06;;;14.73;100.00
74524;BME280;63074;44.696;10.358;2022-09-30T08:23:29;99165.91;;;14.77;100.00
74524;BME280;63074;44.696;10.358;2022-09-30T08:26:09;99163.47;;;14.47;100.00
74524;BME280;63074;44.696;10.358;2022-09-30T08:28:36;99168.06;;;14.46;100.00
74524;BME280;63074;44.696;10.358;2022-09-30T08:31:16;99173.44;;;14.51;100.00
74524;BME280;63074;44.696;10.358;2022-09-30T08:33:43;99176.97;;;14.47;100.00
74524;BME280;63074;44.696;10.358;2022-09-30T08:36:20;99176.94;;;14.52;100.00
74524;BME280;63074;44.696;10.358;2022-09-30T08:38:46;99177.16;;;14.61;100.00
74524;BME280;63074;44.696;10.358;2022-09-30T08:41:17;99181.78;;;14.55;100.00
74524;BME280;63074;44.696;10.358;2022-09-30T08:52:32;99222.41;;;14.45;100.00
74524;BME280;63074;44.696;10.358;2022-09-30T08:54:59;99221.81;;;14.53;100.00
74524;BME280;63074;44.696;10.358;2022-09-30T08:57:29;99222.41;;;14.45;100.00
74524;BME280;63074;44.696;10.358;2022-09-30T09:00:00;99227.00;;;14.44;100.00
74524;BME280;63074;44.696;10.358;2022-09-30T09:02:42;99231.72;;;14.18;100.00
74524;BME280;63074;44.696;10.358;2022-09-30T09:05:19;99235.94;;;14.40;100.00
74524;BME280;63074;44.696;10.358;2022-09-30T09:10:45;99240.53;;;14.39;100.00
74524;BME280;63074;44.696;10.358;2022-09-30T09:16:04;99253.00;;;13.71;100.00
74524;BME280;63074;44.696;10.358;2022-09-30T09:19:09;99266.22;;;13.77;100.00
74524;BME280;63074;44.696;10.358;2022-09-30T09:24:05;99275.13;;;13.78;100.00
74524;BME280;63074;44.696;10.358;2022-09-30T09:26:36;99277.31;;;13.61;100.00
74524;BME280;63074;44.696;10.358;2022-09-30T09:29:19;99285.31;;;14.01;100.00
74524;BME280;63074;44.696;10.358;2022-09-30T09:31:46;99286.94;;;13.97;100.00
74524;BME280;63074;44.696;10.358;2022-09-30T09:34:12;99285.13;;;13.82;100.00
74524;BME280;63074;44.696;10.358;2022-09-30T09:47:53;99287.56;;;13.74;100.00
74524;BME280;63074;44.696;10.358;2022-09-30T09:53:52;99288.34;;;13.79;100.00
74524;BME280;63074;44.696;10.358;2022-09-30T09:56:27;99291.00;;;13.95;100.00
74524;BME280;63074;44.696;10.358;2022-09-30T09:59:13;99295.06;;;13.87;100.00
74524;BME280;63074;44.696;10.358;2022-09-30T10:01:50;99298.91;;;13.71;100.00
74524;BME280;63074;44.696;10.358;2022-09-30T10:07:11;99318.88;;;13.85;100.00
74524;BME280;63074;44.696;10.358;2022-09-30T10:09:39;99318.56;;;13.92;100.00
74524;BME280;63074;44.696;10.358;2022-09-30T10:14:53;99316.94;;;13.91;100.00
74524;BME280;63074;44.696;10.358;2022-09-30T10:17:36;99308.81;;;14.01;100.00
74524;BME280;63074;44.696;10.358;2022-09-30T10:22:43;99297.97;;;14.70;100.00
74524;BME280;63074;44.696;10.358;2022-09-30T10:25:24;99290.03;;;14.35;100.00
74524;BME280;63074;44.696;10.358;2022-09-30T10:27:59;99300.31;;;14.77;100.00
74524;BME280;63074;44.696;10.358;2022-09-30T10:30:29;99299.41;;;14.97;100.00
74524;BME280;63074;44.696;10.358;2022-09-30T10:32:57;99303.53;;;14.84;100.00
74524;BME280;63074;44.696;10.358;2022-09-30T10:35:23;99304.66;;;14.78;100.00
74524;BME280;63074;44.696;10.358;2022-09-30T10:37:51;99305.47;;;15.12;100.00
74524;BME280;63074;44.696;10.358;2022-09-30T10:40:28;99318.34;;;14.97;100.00
74524;BME280;63074;44.696;10.358;2022-09-30T10:42:57;99308.34;;;14.92;100.00
74524;BME280;63074;44.696;10.358;2022-09-30T10:45:35;99317.38;;;14.77;100.00
74524;BME280;63074;44.696;10.358;2022-09-30T10:48:16;99315.63;;;14.97;100.00
74524;BME280;63074;44.696;10.358;2022-09-30T10:50:59;99324.00;;;15.00;100.00
74524;BME280;63074;44.696;10.358;2022-09-30T10:53:40;99322.03;;;15.06;100.00
74524;BME280;63074;44.696;10.358;2022-09-30T10:56:08;99325.25;;;15.08;100.00
74524;BME280;63074;44.696;10.358;2022-09-30T10:58:46;99331.22;;;15.05;100.00
74524;BME280;63074;44.696;10.358;2022-09-30T11:01:26;99346.13;;;14.63;100.00
74524;BME280;63074;44.696;10.358;2022-09-30T11:06:33;99346.28;;;14.82;100.00
74524;BME280;63074;44.696;10.358;2022-09-30T11:09:14;99341.41;;;14.84;100.00
74524;BME280;63074;44.696;10.358;2022-09-30T11:12:03;99344.09;;;14.84;100.00
74524;BME280;63074;44.696;10.358;2022-09-30T11:14:52;99347.91;;;14.78;100.00
74524;BME280;63074;44.696;10.358;2022-09-30T11:20:47;99344.81;;;15.00;100.00
74524;BME280;63074;44.696;10.358;2022-09-30T11:23:35;99349.28;;;15.19;100.00
74524;BME280;63074;44.696;10.358;2022-09-30T11:28:57;99367.94;;;14.77;100.00
74524;BME280;63074;44.696;10.358;2022-09-30T11:31:36;99370.03;;;14.90;100.00
74524;BME280;63074;44.696;10.358;2022-09-30T11:34:27;99375.91;;;15.02;100.00
74524;BME280;63074;44.696;10.358;2022-09-30T11:42:27;99385.03;;;14.72;100.00
74524;BME280;63074;44.696;10.358;2022-09-30T11:53:51;99383.63;;;14.75;100.00
74524;BME280;63074;44.696;10.358;2022-09-30T11:56:38;99386.28;;;14.90;100.00
74524;BME280;63074;44.696;10.358;2022-09-30T11:59:21;99389.56;;;14.77;100.00
74524;BME280;63074;44.696;10.358;2022-09-30T12:01:52;99394.16;;;14.81;100.00
74524;BME280;63074;44.696;10.358;2022-09-30T12:06:58;99384.00;;;15.02;100.00
74524;BME280;63074;44.696;10.358;2022-09-30T12:09:27;99385.47;;;14.90;100.00
74524;BME280;63074;44.696;10.358;2022-09-30T12:11:59;99386.88;;;14.77;100.00
74524;BME280;63074;44.696;10.358;2022-09-30T12:14:33;99382.00;;;14.79;100.00
74524;BME280;63074;44.696;10.358;2022-09-30T12:17:03;99392.56;;;14.75;100.00
74524;BME280;63074;44.696;10.358;2022-09-30T12:19:39;99386.06;;;14.76;100.00
74524;BME280;63074;44.696;10.358;2022-09-30T12:22:25;99390.13;;;14.74;100.00
74524;BME280;63074;44.696;10.358;2022-09-30T12:24:54;99395.06;;;14.67;100.00
74524;BME280;63074;44.696;10.358;2022-09-30T12:27:32;99405.88;;;14.67;100.00
74524;BME280;63074;44.696;10.358;2022-09-30T12:30:03;99408.06;;;14.60;100.00
74524;BME280;63074;44.696;10.358;2022-09-30T12:33:03;99404.03;;;14.47;100.00
74524;BME280;63074;44.696;10.358;2022-09-30T12:39:24;99402.13;;;14.58;100.00
74524;BME280;63074;44.696;10.358;2022-09-30T12:57:21;99404.28;;;14.56;100.00
74524;BME280;63074;44.696;10.358;2022-09-30T13:00:14;99400.50;;;14.51;100.00
74524;BME280;63074;44.696;10.358;2022-09-30T13:02:49;99391.88;;;14.44;100.00
74524;BME280;63074;44.696;10.358;2022-09-30T13:08:47;99399.72;;;14.51;100.00
74524;BME280;63074;44.696;10.358;2022-09-30T13:11:34;99408.59;;;14.57;100.00
74524;BME280;63074;44.696;10.358;2022-09-30T13:23:46;99459.75;;;14.38;100.00
74524;BME280;63074;44.696;10.358;2022-09-30T13:28:50;99474.66;;;14.00;100.00
74524;BME280;63074;44.696;10.358;2022-09-30T13:38:37;99486.25;;;14.26;100.00
74524;BME280;63074;44.696;10.358;2022-09-30T13:41:36;99482.19;;;14.18;100.00
74524;BME280;63074;44.696;10.358;2022-09-30T13:47:36;99483.81;;;14.24;100.00
74524;BME280;63074;44.696;10.358;2022-09-30T15:28:38;99509.63;;;14.91;100.00
74524;BME280;63074;44.696;10.358;2022-09-30T15:34:11;99512.63;;;14.74;100.00
74524;BME280;63074;44.696;10.358;2022-09-30T15:36:38;99510.22;;;14.73;100.00
74524;BME280;63074;44.696;10.358;2022-09-30T15:41:40;99522.41;;;14.70;100.00
74524;BME280;63074;44.696;10.358;2022-09-30T15:44:15;99537.28;;;14.68;100.00
74524;BME280;63074;44.696;10.358;2022-09-30T15:47:01;99541.06;;;14.72;100.00
74524;BME280;63074;44.696;10.358;2022-09-30T15:52:37;99537.25;;;14.78;100.00
74524;BME280;63074;44.696;10.358;2022-09-30T15:58:00;99549.47;;;14.55;100.00
74524;BME280;63074;44.696;10.358;2022-09-30T16:00:35;99566.78;;;14.44;100.00
74524;BME280;63074;44.696;10.358;2022-09-30T16:05:44;99570.84;;;14.51;100.00
74524;BME280;63074;44.696;10.358;2022-09-30T16:08:22;99568.69;;;14.48;100.00
74524;BME280;63074;44.696;10.358;2022-09-30T16:10:52;99555.16;;;14.64;100.00
74524;BME280;63074;44.696;10.358;2022-09-30T16:13:21;99550.25;;;14.71;100.00
74524;BME280;63074;44.696;10.358;2022-09-30T16:15:51;99539.38;;;14.86;100.00
74524;BME280;63074;44.696;10.358;2022-09-30T16:18:20;99531.50;;;15.00;100.00
74524;BME280;63074;44.696;10.358;2022-09-30T16:21:02;99525.03;;;14.91;100.00
74524;BME280;63074;44.696;10.358;2022-09-30T16:23:33;99533.16;;;14.96;100.00
74524;BME280;63074;44.696;10.358;2022-09-30T16:28:41;99537.72;;;15.00;100.00
74524;BME280;63074;44.696;10.358;2022-09-30T16:31:08;99550.41;;;15.05;100.00
74524;BME280;63074;44.696;10.358;2022-09-30T16:33:37;99554.00;;;14.75;100.00
74524;BME280;63074;44.696;10.358;2022-09-30T16:36:06;99561.91;;;14.66;100.00
74524;BME280;63074;44.696;10.358;2022-09-30T16:38:32;99566.78;;;14.59;100.00
74524;BME280;63074;44.696;10.358;2022-09-30T16:40:58;99574.06;;;14.64;100.00
74524;BME280;63074;44.696;10.358;2022-09-30T16:43:24;99581.91;;;14.55;100.00
74524;BME280;63074;44.696;10.358;2022-09-30T16:45:51;99585.69;;;14.59;100.00
74524;BME280;63074;44.696;10.358;2022-09-30T16:48:18;99591.09;;;14.64;100.00
74524;BME280;63074;44.696;10.358;2022-09-30T16:51:13;99580.84;;;14.61;100.00
74524;BME280;63074;44.696;10.358;2022-09-30T16:53:40;99570.50;;;14.78;100.00
74524;BME280;63074;44.696;10.358;2022-09-30T16:56:18;99578.34;;;14.90;100.00
74524;BME280;63074;44.696;10.358;2022-09-30T16:58:45;99578.34;;;14.90;100.00
74524;BME280;63074;44.696;10.358;2022-09-30T17:01:19;99578.06;;;14.92;100.00
74524;BME280;63074;44.696;10.358;2022-09-30T17:03:45;99583.19;;;14.98;100.00
74524;BME280;63074;44.696;10.358;2022-09-30T17:06:12;99598.38;;;14.84;100.00
74524;BME280;63074;44.696;10.358;2022-09-30T17:08:38;99610.28;;;14.73;100.00
74524;BME280;63074;44.696;10.358;2022-09-30T17:11:23;99612.47;;;14.50;100.00
74524;BME280;63074;44.696;10.358;2022-09-30T17:13:54;99616.78;;;14.57;100.00
74524;BME280;63074;44.696;10.358;2022-09-30T17:16:19;99627.31;;;14.73;100.00
74524;BME280;63074;44.696;10.358;2022-09-30T17:18:46;99632.47;;;14.49;100.00
74524;BME280;63074;44.696;10.358;2022-09-30T17:21:12;99634.38;;;14.49;100.00
74524;BME280;63074;44.696;10.358;2022-09-30T17:23:37;99634.38;;;14.49;100.00
74524;BME280;63074;44.696;10.358;2022-09-30T17:26:05;99628.16;;;14.53;100.00
74524;BME280;63074;44.696;10.358;2022-09-30T17:28:31;99630.84;;;14.53;100.00
74524;BME280;63074;44.696;10.358;2022-09-30T17:31:11;99623.00;;;14.67;100.00
74524;BME280;63074;44.696;10.358;2022-09-30T17:33:42;99622.47;;;14.60;100.00
74524;BME280;63074;44.696;10.358;2022-09-30T17:36:10;99623.81;;;14.52;100.00
74524;BME280;63074;44.696;10.358;2022-09-30T17:38:37;99625.19;;;14.65;100.00
74524;BME280;63074;44.696;10.358;2022-09-30T17:41:04;99611.66;;;14.65;100.00
74524;BME280;63074;44.696;10.358;2022-09-30T17:43:48;99606.22;;;14.75;100.00
74524;BME280;63074;44.696;10.358;2022-09-30T17:46:15;99611.88;;;14.84;100.00
74524;BME280;63074;44.696;10.358;2022-09-30T17:48:47;99609.72;;;14.86;100.00
74524;BME280;63074;44.696;10.358;2022-09-30T17:51:14;99615.13;;;14.86;100.00